< < Back
Terminal Aerodrome Forecast


Current Version              Previous Versions:   1  2  3  4  5  6  7  8  9  

Terminal Aerodrome Forecast

574
FTUS42 KFFC 010331 AAB
TAFATL
TAF AMD
KATL 010331Z 0104/0206 11005KT P6SM BKN150
     FM011400 14007KT P6SM SCT025 BKN050
     FM011800 17008KT P6SM VCSH OVC025
     FM012100 17008KT 5SM -RA BR OVC015
     FM020000 16007KT 3SM -RA BR OVC007
     FM020400 17010KT 2SM -RA BR OVC004=



Latest METAR

530
SAUS70 KWBC 010400 RRL
MTRATL
METAR KATL 010352Z 00000KT 10SM FEW150 OVC180 08/M06 A3027 RMK AO2
SLP255 T00831056


USA.gov is the U.S. government's official web portal to all federal, state and local government web resources and services.